sensor_id;sensor_type;location;lat;lon;timestamp;temperature;humidity
46508;DHT22;32223;53.654;10.014;2023-02-01T00:00:10;5.00;99.90
46508;DHT22;32223;53.654;10.014;2023-02-01T00:02:36;5.00;99.90
46508;DHT22;32223;53.654;10.014;2023-02-01T00:05:05;5.00;99.90
46508;DHT22;32223;53.654;10.014;2023-02-01T00:07:31;5.00;99.90
46508;DHT22;32223;53.654;10.014;2023-02-01T00:09:56;5.00;99.90
46508;DHT22;32223;53.654;10.014;2023-02-01T00:12:22;4.90;99.90
46508;DHT22;32223;53.654;10.014;2023-02-01T00:14:48;4.90;99.90
46508;DHT22;32223;53.654;10.014;2023-02-01T00:17:13;4.90;99.90
46508;DHT22;32223;53.654;10.014;2023-02-01T00:19:39;4.80;99.90
46508;DHT22;32223;53.654;10.014;2023-02-01T00:22:05;4.80;99.90
46508;DHT22;32223;53.654;10.014;2023-02-01T00:24:30;4.80;99.90
46508;DHT22;32223;53.654;10.014;2023-02-01T00:26:56;4.80;99.90
46508;DHT22;32223;53.654;10.014;2023-02-01T00:29:22;4.70;99.90
46508;DHT22;32223;53.654;10.014;2023-02-01T00:31:50;4.70;99.90
46508;DHT22;32223;53.654;10.014;2023-02-01T00:34:17;4.70;99.90
46508;DHT22;32223;53.654;10.014;2023-02-01T00:36:43;4.70;99.90
46508;DHT22;32223;53.654;10.014;2023-02-01T00:39:09;4.70;99.90
46508;DHT22;32223;53.654;10.014;2023-02-01T00:41:35;4.70;99.90
46508;DHT22;32223;53.654;10.014;2023-02-01T00:44:01;4.80;99.90
46508;DHT22;32223;53.654;10.014;2023-02-01T00:46:27;4.80;99.90
46508;DHT22;32223;53.654;10.014;2023-02-01T00:48:53;4.90;99.90
46508;DHT22;32223;53.654;10.014;2023-02-01T00:51:21;4.90;99.90
46508;DHT22;32223;53.654;10.014;2023-02-01T00:53:48;5.10;99.90
46508;DHT22;32223;53.654;10.014;2023-02-01T00:56:14;5.00;99.90
46508;DHT22;32223;53.654;10.014;2023-02-01T00:58:39;5.00;99.90
46508;DHT22;32223;53.654;10.014;2023-02-01T01:03:42;5.10;99.90
46508;DHT22;32223;53.654;10.014;2023-02-01T01:06:13;5.10;99.90
46508;DHT22;32223;53.654;10.014;2023-02-01T01:08:39;5.10;99.90
46508;DHT22;32223;53.654;10.014;2023-02-01T01:11:17;5.20;99.90
46508;DHT22;32223;53.654;10.014;2023-02-01T01:13:45;5.10;99.90
46508;DHT22;32223;53.654;10.014;2023-02-01T01:16:11;5.10;99.90
46508;DHT22;32223;53.654;10.014;2023-02-01T01:18:37;5.20;99.90
46508;DHT22;32223;53.654;10.014;2023-02-01T01:21:07;5.20;99.90
46508;DHT22;32223;53.654;10.014;2023-02-01T01:23:34;5.10;99.90
46508;DHT22;32223;53.654;10.014;2023-02-01T01:26:00;5.20;99.90
46508;DHT22;32223;53.654;10.014;2023-02-01T01:28:26;5.20;99.90
46508;DHT22;32223;53.654;10.014;2023-02-01T01:30:51;5.20;99.90
46508;DHT22;32223;53.654;10.014;2023-02-01T01:33:17;5.20;99.90
46508;DHT22;32223;53.654;10.014;2023-02-01T01:35:43;5.20;99.90
46508;DHT22;32223;53.654;10.014;2023-02-01T01:38:10;5.20;99.90
46508;DHT22;32223;53.654;10.014;2023-02-01T01:40:37;5.20;99.90
46508;DHT22;32223;53.654;10.014;2023-02-01T01:43:03;5.10;99.90
46508;DHT22;32223;53.654;10.014;2023-02-01T01:45:35;5.20;99.90
46508;DHT22;32223;53.654;10.014;2023-02-01T01:48:07;5.10;99.90
46508;DHT22;32223;53.654;10.014;2023-02-01T01:50:42;5.20;99.90
46508;DHT22;32223;53.654;10.014;2023-02-01T01:53:12;5.20;99.90
46508;DHT22;32223;53.654;10.014;2023-02-01T01:55:43;5.20;99.90
46508;DHT22;32223;53.654;10.014;2023-02-01T01:58:13;5.20;99.90
46508;DHT22;32223;53.654;10.014;2023-02-01T02:00:40;5.20;99.90
46508;DHT22;32223;53.654;10.014;2023-02-01T02:05:41;5.30;99.90
46508;DHT22;32223;53.654;10.014;2023-02-01T02:08:07;5.30;99.90
46508;DHT22;32223;53.654;10.014;2023-02-01T02:10:33;5.30;99.90
46508;DHT22;32223;53.654;10.014;2023-02-01T02:13:18;5.30;99.90
46508;DHT22;32223;53.654;10.014;2023-02-01T02:29:07;5.40;99.90
46508;DHT22;32223;53.654;10.014;2023-02-01T02:31:41;5.40;99.90
46508;DHT22;32223;53.654;10.014;2023-02-01T02:39:49;5.30;99.90
46508;DHT22;32223;53.654;10.014;2023-02-01T02:42:37;5.30;99.90
46508;DHT22;32223;53.654;10.014;2023-02-01T02:45:38;5.30;99.90
46508;DHT22;32223;53.654;10.014;2023-02-01T02:48:34;5.30;99.90
46508;DHT22;32223;53.654;10.014;2023-02-01T02:51:14;5.30;99.90
46508;DHT22;32223;53.654;10.014;2023-02-01T02:54:13;5.30;99.90
46508;DHT22;32223;53.654;10.014;2023-02-01T02:56:59;5.30;99.90
46508;DHT22;32223;53.654;10.014;2023-02-01T02:59:47;5.20;99.90
46508;DHT22;32223;53.654;10.014;2023-02-01T03:02:32;5.20;99.90
46508;DHT22;32223;53.654;10.014;2023-02-01T03:05:16;5.10;99.90
46508;DHT22;32223;53.654;10.014;2023-02-01T03:07:56;5.00;99.90
46508;DHT22;32223;53.654;10.014;2023-02-01T03:13:15;5.00;99.90
46508;DHT22;32223;53.654;10.014;2023-02-01T03:15:50;5.00;99.90
46508;DHT22;32223;53.654;10.014;2023-02-01T03:18:29;5.00;99.90
46508;DHT22;32223;53.654;10.014;2023-02-01T03:21:01;4.80;99.90
46508;DHT22;32223;53.654;10.014;2023-02-01T03:23:32;4.80;99.90
46508;DHT22;32223;53.654;10.014;2023-02-01T03:26:00;4.80;99.90
46508;DHT22;32223;53.654;10.014;2023-02-01T03:28:28;4.70;99.90
46508;DHT22;32223;53.654;10.014;2023-02-01T03:30:54;4.70;99.90
46508;DHT22;32223;53.654;10.014;2023-02-01T03:33:23;4.70;99.90
46508;DHT22;32223;53.654;10.014;2023-02-01T03:39:05;4.70;99.90
46508;DHT22;32223;53.654;10.014;2023-02-01T03:44:15;4.70;99.90
46508;DHT22;32223;53.654;10.014;2023-02-01T03:46:50;4.70;99.90
46508;DHT22;32223;53.654;10.014;2023-02-01T03:49:27;4.70;99.90
46508;DHT22;32223;53.654;10.014;2023-02-01T03:51:55;4.70;99.90
46508;DHT22;32223;53.654;10.014;2023-02-01T03:54:22;4.70;99.90
46508;DHT22;32223;53.654;10.014;2023-02-01T03:56:50;4.70;99.90
46508;DHT22;32223;53.654;10.014;2023-02-01T03:59:18;4.60;99.90
46508;DHT22;32223;53.654;10.014;2023-02-01T04:01:43;4.60;99.90
46508;DHT22;32223;53.654;10.014;2023-02-01T04:04:09;4.60;99.90
46508;DHT22;32223;53.654;10.014;2023-02-01T04:06:35;4.60;99.90
46508;DHT22;32223;53.654;10.014;2023-02-01T04:09:00;4.60;99.90
46508;DHT22;32223;53.654;10.014;2023-02-01T04:11:26;4.60;99.90
46508;DHT22;32223;53.654;10.014;2023-02-01T04:13:53;4.60;99.90
46508;DHT22;32223;53.654;10.014;2023-02-01T04:16:18;4.60;99.90
46508;DHT22;32223;53.654;10.014;2023-02-01T04:18:44;4.60;99.90
46508;DHT22;32223;53.654;10.014;2023-02-01T04:21:09;4.60;99.90
46508;DHT22;32223;53.654;10.014;2023-02-01T04:23:35;4.60;99.90
46508;DHT22;32223;53.654;10.014;2023-02-01T04:26:03;4.60;99.90
46508;DHT22;32223;53.654;10.014;2023-02-01T04:28:29;4.70;99.90
46508;DHT22;32223;53.654;10.014;2023-02-01T04:30:55;4.70;99.90
46508;DHT22;32223;53.654;10.014;2023-02-01T04:33:21;4.70;99.90
46508;DHT22;32223;53.654;10.014;2023-02-01T04:35:47;4.60;99.90
46508;DHT22;32223;53.654;10.014;2023-02-01T04:38:13;4.50;99.90
46508;DHT22;32223;53.654;10.014;2023-02-01T04:40:38;4.50;99.90
46508;DHT22;32223;53.654;10.014;2023-02-01T04:43:04;4.50;99.90
46508;DHT22;32223;53.654;10.014;2023-02-01T04:45:30;4.50;99.90
46508;DHT22;32223;53.654;10.014;2023-02-01T04:47:56;4.50;99.90
46508;DHT22;32223;53.654;10.014;2023-02-01T04:50:22;4.50;99.90
46508;DHT22;32223;53.654;10.014;2023-02-01T04:52:49;4.40;99.90
46508;DHT22;32223;53.654;10.014;2023-02-01T04:55:14;4.40;99.90
46508;DHT22;32223;53.654;10.014;2023-02-01T04:57:40;4.40;99.90
46508;DHT22;32223;53.654;10.014;2023-02-01T05:00:07;4.40;99.90
46508;DHT22;32223;53.654;10.014;2023-02-01T05:02:33;4.40;99.90
46508;DHT22;32223;53.654;10.014;2023-02-01T05:05:00;4.40;99.90
46508;DHT22;32223;53.654;10.014;2023-02-01T05:07:26;4.30;99.90
46508;DHT22;32223;53.654;10.014;2023-02-01T05:09:51;4.30;99.90
46508;DHT22;32223;53.654;10.014;2023-02-01T05:12:17;4.30;99.90
46508;DHT22;32223;53.654;10.014;2023-02-01T05:15:01;4.20;99.90
46508;DHT22;32223;53.654;10.014;2023-02-01T05:17:27;4.20;99.90
46508;DHT22;32223;53.654;10.014;2023-02-01T05:19:52;4.20;99.90
46508;DHT22;32223;53.654;10.014;2023-02-01T05:22:18;4.20;99.90
46508;DHT22;32223;53.654;10.014;2023-02-01T05:24:44;4.10;99.90
46508;DHT22;32223;53.654;10.014;2023-02-01T05:27:10;4.10;99.90
46508;DHT22;32223;53.654;10.014;2023-02-01T05:29:35;4.10;99.90
46508;DHT22;32223;53.654;10.014;2023-02-01T05:32:01;4.00;99.90
46508;DHT22;32223;53.654;10.014;2023-02-01T05:34:26;3.90;99.90
46508;DHT22;32223;53.654;10.014;2023-02-01T05:36:52;3.90;99.90
46508;DHT22;32223;53.654;10.014;2023-02-01T05:39:18;3.80;99.90
46508;DHT22;32223;53.654;10.014;2023-02-01T05:41:44;3.70;99.90
46508;DHT22;32223;53.654;10.014;2023-02-01T05:44:10;3.70;99.90
46508;DHT22;32223;53.654;10.014;2023-02-01T05:46:36;3.60;99.90
46508;DHT22;32223;53.654;10.014;2023-02-01T05:49:03;3.60;99.90
46508;DHT22;32223;53.654;10.014;2023-02-01T05:51:29;3.50;99.90
46508;DHT22;32223;53.654;10.014;2023-02-01T05:53:54;3.40;99.90
46508;DHT22;32223;53.654;10.014;2023-02-01T05:56:20;3.30;99.90
46508;DHT22;32223;53.654;10.014;2023-02-01T05:58:45;3.30;99.90
46508;DHT22;32223;53.654;10.014;2023-02-01T06:01:11;3.20;99.90
46508;DHT22;32223;53.654;10.014;2023-02-01T06:03:37;3.30;99.90
46508;DHT22;32223;53.654;10.014;2023-02-01T06:06:02;3.20;99.90
46508;DHT22;32223;53.654;10.014;2023-02-01T06:08:29;3.30;99.90
46508;DHT22;32223;53.654;10.014;2023-02-01T06:10:59;3.20;99.90
46508;DHT22;32223;53.654;10.014;2023-02-01T06:13:25;3.20;99.90
46508;DHT22;32223;53.654;10.014;2023-02-01T06:15:50;3.10;99.90
46508;DHT22;32223;53.654;10.014;2023-02-01T06:18:16;3.10;99.90
46508;DHT22;32223;53.654;10.014;2023-02-01T06:20:42;3.10;99.90
46508;DHT22;32223;53.654;10.014;2023-02-01T06:23:07;3.10;99.90
46508;DHT22;32223;53.654;10.014;2023-02-01T06:25:33;3.10;99.90
46508;DHT22;32223;53.654;10.014;2023-02-01T06:28:02;3.00;99.90
46508;DHT22;32223;53.654;10.014;2023-02-01T06:30:31;3.00;99.90
46508;DHT22;32223;53.654;10.014;2023-02-01T06:32:57;3.00;99.90
46508;DHT22;32223;53.654;10.014;2023-02-01T06:35:22;3.00;99.90
46508;DHT22;32223;53.654;10.014;2023-02-01T06:37:48;3.00;99.90
46508;DHT22;32223;53.654;10.014;2023-02-01T06:40:13;3.00;99.90
46508;DHT22;32223;53.654;10.014;2023-02-01T06:42:39;3.10;99.90
46508;DHT22;32223;53.654;10.014;2023-02-01T06:45:05;3.10;99.90
46508;DHT22;32223;53.654;10.014;2023-02-01T06:47:32;3.10;99.90
46508;DHT22;32223;53.654;10.014;2023-02-01T06:49:58;3.10;99.90
46508;DHT22;32223;53.654;10.014;2023-02-01T06:52:23;3.20;99.90
46508;DHT22;32223;53.654;10.014;2023-02-01T06:54:49;3.20;99.90
46508;DHT22;32223;53.654;10.014;2023-02-01T06:57:14;3.20;99.90
46508;DHT22;32223;53.654;10.014;2023-02-01T06:59:40;3.20;99.90
46508;DHT22;32223;53.654;10.014;2023-02-01T07:02:08;3.30;99.90
46508;DHT22;32223;53.654;10.014;2023-02-01T07:04:34;3.30;99.90
46508;DHT22;32223;53.654;10.014;2023-02-01T07:07:00;3.30;99.90
46508;DHT22;32223;53.654;10.014;2023-02-01T07:09:25;3.40;99.90
46508;DHT22;32223;53.654;10.014;2023-02-01T07:11:51;3.50;99.90
46508;DHT22;32223;53.654;10.014;2023-02-01T07:14:16;3.50;99.90
46508;DHT22;32223;53.654;10.014;2023-02-01T07:16:42;3.60;99.90
46508;DHT22;32223;53.654;10.014;2023-02-01T07:19:07;3.70;99.90
46508;DHT22;32223;53.654;10.014;2023-02-01T07:21:33;3.80;99.90
46508;DHT22;32223;53.654;10.014;2023-02-01T07:23:59;3.80;99.90
46508;DHT22;32223;53.654;10.014;2023-02-01T07:26:25;3.90;99.90
46508;DHT22;32223;53.654;10.014;2023-02-01T07:28:50;4.10;99.90
46508;DHT22;32223;53.654;10.014;2023-02-01T07:31:18;4.20;99.90
46508;DHT22;32223;53.654;10.014;2023-02-01T07:33:46;4.30;99.90
46508;DHT22;32223;53.654;10.014;2023-02-01T07:36:14;4.30;99.90
46508;DHT22;32223;53.654;10.014;2023-02-01T07:38:41;4.40;99.90
46508;DHT22;32223;53.654;10.014;2023-02-01T07:41:07;4.40;99.90
46508;DHT22;32223;53.654;10.014;2023-02-01T07:43:34;4.40;99.90
46508;DHT22;32223;53.654;10.014;2023-02-01T07:46:00;4.40;99.90
46508;DHT22;32223;53.654;10.014;2023-02-01T07:48:26;4.50;99.90
46508;DHT22;32223;53.654;10.014;2023-02-01T07:51:07;4.50;99.90
46508;DHT22;32223;53.654;10.014;2023-02-01T07:53:33;4.60;99.90
46508;DHT22;32223;53.654;10.014;2023-02-01T07:55:59;4.60;99.90
46508;DHT22;32223;53.654;10.014;2023-02-01T07:58:26;4.70;99.90
46508;DHT22;32223;53.654;10.014;2023-02-01T08:00:52;4.70;99.90
46508;DHT22;32223;53.654;10.014;2023-02-01T08:03:37;4.80;99.90
46508;DHT22;32223;53.654;10.014;2023-02-01T08:06:03;4.70;99.90
46508;DHT22;32223;53.654;10.014;2023-02-01T08:08:28;4.60;99.90
46508;DHT22;32223;53.654;10.014;2023-02-01T08:10:58;4.70;99.90
46508;DHT22;32223;53.654;10.014;2023-02-01T08:13:24;4.70;99.90
46508;DHT22;32223;53.654;10.014;2023-02-01T08:15:50;4.70;99.90
46508;DHT22;32223;53.654;10.014;2023-02-01T08:18:15;4.80;99.90
46508;DHT22;32223;53.654;10.014;2023-02-01T08:20:43;4.80;99.90
46508;DHT22;32223;53.654;10.014;2023-02-01T08:23:11;4.90;99.90
46508;DHT22;32223;53.654;10.014;2023-02-01T08:25:37;5.00;99.90
46508;DHT22;32223;53.654;10.014;2023-02-01T08:28:04;5.00;99.90
46508;DHT22;32223;53.654;10.014;2023-02-01T08:30:29;5.10;99.90
46508;DHT22;32223;53.654;10.014;2023-02-01T08:32:55;5.20;99.90
46508;DHT22;32223;53.654;10.014;2023-02-01T08:35:21;5.30;99.90
46508;DHT22;32223;53.654;10.014;2023-02-01T08:37:46;5.30;99.90
46508;DHT22;32223;53.654;10.014;2023-02-01T08:40:12;5.40;99.90
46508;DHT22;32223;53.654;10.014;2023-02-01T08:42:39;5.40;99.90
46508;DHT22;32223;53.654;10.014;2023-02-01T08:45:28;5.30;99.90
46508;DHT22;32223;53.654;10.014;2023-02-01T08:47:55;5.40;99.90
46508;DHT22;32223;53.654;10.014;2023-02-01T08:50:22;5.30;99.90
46508;DHT22;32223;53.654;10.014;2023-02-01T08:52:48;5.30;99.90
46508;DHT22;32223;53.654;10.014;2023-02-01T08:55:14;5.30;99.90
46508;DHT22;32223;53.654;10.014;2023-02-01T08:57:41;5.20;99.90
46508;DHT22;32223;53.654;10.014;2023-02-01T09:00:09;5.10;99.90
46508;DHT22;32223;53.654;10.014;2023-02-01T09:02:36;5.20;99.90
46508;DHT22;32223;53.654;10.014;2023-02-01T09:05:02;5.30;99.90
46508;DHT22;32223;53.654;10.014;2023-02-01T09:07:28;5.30;99.90
46508;DHT22;32223;53.654;10.014;2023-02-01T09:09:53;5.30;99.90
46508;DHT22;32223;53.654;10.014;2023-02-01T09:12:22;5.40;99.90
46508;DHT22;32223;53.654;10.014;2023-02-01T09:14:48;5.50;99.90
46508;DHT22;32223;53.654;10.014;2023-02-01T09:17:14;5.50;99.90
46508;DHT22;32223;53.654;10.014;2023-02-01T09:19:39;5.50;99.90
46508;DHT22;32223;53.654;10.014;2023-02-01T09:22:05;5.60;99.90
46508;DHT22;32223;53.654;10.014;2023-02-01T09:24:31;5.70;99.90
46508;DHT22;32223;53.654;10.014;2023-02-01T09:26:56;5.80;99.90
46508;DHT22;32223;53.654;10.014;2023-02-01T09:29:22;5.90;99.90
46508;DHT22;32223;53.654;10.014;2023-02-01T09:31:47;5.90;99.90
46508;DHT22;32223;53.654;10.014;2023-02-01T09:34:13;6.00;99.90
46508;DHT22;32223;53.654;10.014;2023-02-01T09:36:39;6.10;99.90
46508;DHT22;32223;53.654;10.014;2023-02-01T09:39:05;6.10;99.90
46508;DHT22;32223;53.654;10.014;2023-02-01T09:41:39;6.20;99.90
46508;DHT22;32223;53.654;10.014;2023-02-01T09:46:45;6.30;99.90
46508;DHT22;32223;53.654;10.014;2023-02-01T09:49:26;6.30;99.90
46508;DHT22;32223;53.654;10.014;2023-02-01T09:51:53;6.30;99.90
46508;DHT22;32223;53.654;10.014;2023-02-01T09:54:29;6.30;99.90
46508;DHT22;32223;53.654;10.014;2023-02-01T09:57:10;6.20;99.90
46508;DHT22;32223;53.654;10.014;2023-02-01T09:59:44;6.20;99.90
46508;DHT22;32223;53.654;10.014;2023-02-01T10:02:16;6.20;99.90
46508;DHT22;32223;53.654;10.014;2023-02-01T10:04:43;6.30;99.90
46508;DHT22;32223;53.654;10.014;2023-02-01T10:07:20;6.30;99.90
46508;DHT22;32223;53.654;10.014;2023-02-01T10:15:09;6.30;99.90
46508;DHT22;32223;53.654;10.014;2023-02-01T10:20:56;6.10;99.90
46508;DHT22;32223;53.654;10.014;2023-02-01T10:26:23;6.10;99.90
46508;DHT22;32223;53.654;10.014;2023-02-01T10:28:56;6.20;99.90
46508;DHT22;32223;53.654;10.014;2023-02-01T10:31:31;6.20;99.90
46508;DHT22;32223;53.654;10.014;2023-02-01T10:34:00;6.10;99.90
46508;DHT22;32223;53.654;10.014;2023-02-01T10:36:40;6.10;99.90
46508;DHT22;32223;53.654;10.014;2023-02-01T10:39:10;6.10;99.90
46508;DHT22;32223;53.654;10.014;2023-02-01T10:41:39;6.20;99.90
46508;DHT22;32223;53.654;10.014;2023-02-01T10:44:14;6.20;99.90
46508;DHT22;32223;53.654;10.014;2023-02-01T10:46:40;6.20;99.90
46508;DHT22;32223;53.654;10.014;2023-02-01T10:49:13;6.20;99.90
46508;DHT22;32223;53.654;10.014;2023-02-01T10:51:52;6.20;99.90
46508;DHT22;32223;53.654;10.014;2023-02-01T10:54:33;6.20;99.90
46508;DHT22;32223;53.654;10.014;2023-02-01T10:56:59;6.20;99.90
46508;DHT22;32223;53.654;10.014;2023-02-01T10:59:27;6.10;99.90
46508;DHT22;32223;53.654;10.014;2023-02-01T11:02:02;6.00;99.90
46508;DHT22;32223;53.654;10.014;2023-02-01T11:04:34;6.00;99.90
46508;DHT22;32223;53.654;10.014;2023-02-01T11:07:24;6.00;99.90
46508;DHT22;32223;53.654;10.014;2023-02-01T11:09:53;6.00;99.90
46508;DHT22;32223;53.654;10.014;2023-02-01T11:12:34;6.00;99.90
46508;DHT22;32223;53.654;10.014;2023-02-01T11:15:20;5.90;99.90
46508;DHT22;32223;53.654;10.014;2023-02-01T11:17:48;5.90;99.90
46508;DHT22;32223;53.654;10.014;2023-02-01T11:22:57;5.70;99.90
46508;DHT22;32223;53.654;10.014;2023-02-01T11:25:24;5.70;99.90
46508;DHT22;32223;53.654;10.014;2023-02-01T11:27:51;5.70;99.90
46508;DHT22;32223;53.654;10.014;2023-02-01T11:30:34;5.70;99.90
46508;DHT22;32223;53.654;10.014;2023-02-01T11:33:03;5.70;99.90
46508;DHT22;32223;53.654;10.014;2023-02-01T11:35:30;5.70;99.90
46508;DHT22;32223;53.654;10.014;2023-02-01T11:37:58;5.70;99.90
46508;DHT22;32223;53.654;10.014;2023-02-01T11:40:37;5.70;99.90
46508;DHT22;32223;53.654;10.014;2023-02-01T11:43:08;5.80;99.90
46508;DHT22;32223;53.654;10.014;2023-02-01T11:45:35;5.80;99.90
46508;DHT22;32223;53.654;10.014;2023-02-01T11:48:09;5.80;99.90
46508;DHT22;32223;53.654;10.014;2023-02-01T12:01:59;5.90;99.90
46508;DHT22;32223;53.654;10.014;2023-02-01T12:14:56;5.80;99.90
46508;DHT22;32223;53.654;10.014;2023-02-01T12:17:38;5.80;99.90
46508;DHT22;32223;53.654;10.014;2023-02-01T12:37:05;5.20;99.90
46508;DHT22;32223;53.654;10.014;2023-02-01T12:45:46;4.90;99.90
46508;DHT22;32223;53.654;10.014;2023-02-01T12:48:30;4.80;99.90
46508;DHT22;32223;53.654;10.014;2023-02-01T12:51:01;4.70;99.90
46508;DHT22;32223;53.654;10.014;2023-02-01T12:56:07;4.70;99.90
46508;DHT22;32223;53.654;10.014;2023-02-01T12:58:58;4.50;99.90
46508;DHT22;32223;53.654;10.014;2023-02-01T13:01:56;4.50;99.90
46508;DHT22;32223;53.654;10.014;2023-02-01T13:04:34;4.40;99.90
46508;DHT22;32223;53.654;10.014;2023-02-01T13:07:21;4.40;99.90
46508;DHT22;32223;53.654;10.014;2023-02-01T13:12:28;4.30;99.90
46508;DHT22;32223;53.654;10.014;2023-02-01T13:15:45;4.40;99.90
46508;DHT22;32223;53.654;10.014;2023-02-01T13:17:52;4.40;99.90
46508;DHT22;32223;53.654;10.014;2023-02-01T13:20:31;4.50;99.90
46508;DHT22;32223;53.654;10.014;2023-02-01T13:25:51;6.00;99.90
46508;DHT22;32223;53.654;10.014;2023-02-01T13:39:47;8.70;99.90
46508;DHT22;32223;53.654;10.014;2023-02-01T13:42:24;8.20;99.90
46508;DHT22;32223;53.654;10.014;2023-02-01T13:44:55;7.50;99.90
46508;DHT22;32223;53.654;10.014;2023-02-01T13:47:38;7.00;99.90
46508;DHT22;32223;53.654;10.014;2023-02-01T13:55:43;5.60;99.90
46508;DHT22;32223;53.654;10.014;2023-02-01T13:58:21;5.30;99.90
46508;DHT22;32223;53.654;10.014;2023-02-01T14:00:49;5.00;99.90
46508;DHT22;32223;53.654;10.014;2023-02-01T14:03:43;4.80;99.90
46508;DHT22;32223;53.654;10.014;2023-02-01T14:11:51;4.40;99.90
46508;DHT22;32223;53.654;10.014;2023-02-01T14:19:27;4.20;99.90
46508;DHT22;32223;53.654;10.014;2023-02-01T14:21:58;4.00;99.90
46508;DHT22;32223;53.654;10.014;2023-02-01T14:24:36;3.90;99.90
46508;DHT22;32223;53.654;10.014;2023-02-01T14:27:17;3.80;99.90
46508;DHT22;32223;53.654;10.014;2023-02-01T14:29:51;3.70;99.90
46508;DHT22;32223;53.654;10.014;2023-02-01T14:32:25;3.60;99.90
46508;DHT22;32223;53.654;10.014;2023-02-01T14:34:53;3.60;99.90
46508;DHT22;32223;53.654;10.014;2023-02-01T14:42:36;3.70;99.90
46508;DHT22;32223;53.654;10.014;2023-02-01T14:47:51;3.80;99.90
46508;DHT22;32223;53.654;10.014;2023-02-01T14:55:47;3.90;99.90
46508;DHT22;32223;53.654;10.014;2023-02-01T15:01:06;4.00;99.90
46508;DHT22;32223;53.654;10.014;2023-02-01T15:04:04;4.00;99.90
46508;DHT22;32223;53.654;10.014;2023-02-01T15:14:34;4.10;99.90
46508;DHT22;32223;53.654;10.014;2023-02-01T15:17:00;4.10;99.90
46508;DHT22;32223;53.654;10.014;2023-02-01T15:19:28;4.10;99.90
46508;DHT22;32223;53.654;10.014;2023-02-01T15:21:56;4.10;99.90
46508;DHT22;32223;53.654;10.014;2023-02-01T15:24:30;4.10;99.90
46508;DHT22;32223;53.654;10.014;2023-02-01T15:27:02;4.10;99.90
46508;DHT22;32223;53.654;10.014;2023-02-01T15:29:29;4.20;99.90
46508;DHT22;32223;53.654;10.014;2023-02-01T15:31:57;4.20;99.90
46508;DHT22;32223;53.654;10.014;2023-02-01T15:34:23;4.20;99.90
46508;DHT22;32223;53.654;10.014;2023-02-01T15:37:13;4.20;99.90
46508;DHT22;32223;53.654;10.014;2023-02-01T15:42:38;4.20;99.90
46508;DHT22;32223;53.654;10.014;2023-02-01T15:45:19;4.20;99.90
46508;DHT22;32223;53.654;10.014;2023-02-01T15:47:52;4.20;99.90
46508;DHT22;32223;53.654;10.014;2023-02-01T15:50:20;4.20;99.90
46508;DHT22;32223;53.654;10.014;2023-02-01T15:52:51;4.30;99.90
46508;DHT22;32223;53.654;10.014;2023-02-01T15:55:23;4.30;99.90
46508;DHT22;32223;53.654;10.014;2023-02-01T15:57:55;4.30;99.90
46508;DHT22;32223;53.654;10.014;2023-02-01T16:02:58;4.30;99.90
46508;DHT22;32223;53.654;10.014;2023-02-01T16:05:36;4.40;99.90
46508;DHT22;32223;53.654;10.014;2023-02-01T16:08:12;4.40;99.90
46508;DHT22;32223;53.654;10.014;2023-02-01T16:10:45;4.40;99.90
46508;DHT22;32223;53.654;10.014;2023-02-01T16:13:12;4.40;99.90
46508;DHT22;32223;53.654;10.014;2023-02-01T16:15:38;4.40;99.90
46508;DHT22;32223;53.654;10.014;2023-02-01T16:18:05;4.40;99.90
46508;DHT22;32223;53.654;10.014;2023-02-01T16:20:33;4.50;99.90
46508;DHT22;32223;53.654;10.014;2023-02-01T16:23:01;4.50;99.90
46508;DHT22;32223;53.654;10.014;2023-02-01T16:25:27;4.50;99.90
46508;DHT22;32223;53.654;10.014;2023-02-01T16:27:53;4.60;99.90
46508;DHT22;32223;53.654;10.014;2023-02-01T16:30:18;4.60;99.90
46508;DHT22;32223;53.654;10.014;2023-02-01T16:32:49;4.60;99.90
46508;DHT22;32223;53.654;10.014;2023-02-01T16:35:33;4.70;99.90
46508;DHT22;32223;53.654;10.014;2023-02-01T16:38:02;4.70;99.90
46508;DHT22;32223;53.654;10.014;2023-02-01T16:40:28;4.80;99.90
46508;DHT22;32223;53.654;10.014;2023-02-01T16:42:54;4.80;99.90
46508;DHT22;32223;53.654;10.014;2023-02-01T16:45:22;4.90;99.90
46508;DHT22;32223;53.654;10.014;2023-02-01T16:47:51;4.90;99.90
46508;DHT22;32223;53.654;10.014;2023-02-01T16:50:24;4.90;99.90
46508;DHT22;32223;53.654;10.014;2023-02-01T16:52:51;4.90;99.90
46508;DHT22;32223;53.654;10.014;2023-02-01T16:55:18;4.90;99.90
46508;DHT22;32223;53.654;10.014;2023-02-01T16:57:44;5.00;99.90
46508;DHT22;32223;53.654;10.014;2023-02-01T17:00:11;4.90;99.90
46508;DHT22;32223;53.654;10.014;2023-02-01T17:02:37;5.00;99.90
46508;DHT22;32223;53.654;10.014;2023-02-01T17:05:04;5.00;99.90
46508;DHT22;32223;53.654;10.014;2023-02-01T17:07:31;5.00;99.90
46508;DHT22;32223;53.654;10.014;2023-02-01T17:09:56;5.00;99.90
46508;DHT22;32223;53.654;10.014;2023-02-01T17:12:27;5.10;99.90
46508;DHT22;32223;53.654;10.014;2023-02-01T17:14:55;5.10;99.90
46508;DHT22;32223;53.654;10.014;2023-02-01T17:17:21;5.10;99.90
46508;DHT22;32223;53.654;10.014;2023-02-01T17:19:50;5.20;99.90
46508;DHT22;32223;53.654;10.014;2023-02-01T17:22:19;5.10;99.90
46508;DHT22;32223;53.654;10.014;2023-02-01T17:24:44;5.20;99.90
46508;DHT22;32223;53.654;10.014;2023-02-01T17:27:10;5.20;99.90
46508;DHT22;32223;53.654;10.014;2023-02-01T17:29:35;5.30;99.90
46508;DHT22;32223;53.654;10.014;2023-02-01T17:32:02;5.30;99.90
46508;DHT22;32223;53.654;10.014;2023-02-01T17:34:28;5.30;99.90
46508;DHT22;32223;53.654;10.014;2023-02-01T17:36:54;5.30;99.90
46508;DHT22;32223;53.654;10.014;2023-02-01T17:39:20;5.40;99.90
46508;DHT22;32223;53.654;10.014;2023-02-01T17:42:05;5.30;99.90
46508;DHT22;32223;53.654;10.014;2023-02-01T17:44:33;5.30;99.90
46508;DHT22;32223;53.654;10.014;2023-02-01T17:46:59;5.30;99.90
46508;DHT22;32223;53.654;10.014;2023-02-01T17:49:25;5.40;99.90
46508;DHT22;32223;53.654;10.014;2023-02-01T17:51:53;5.40;99.90
46508;DHT22;32223;53.654;10.014;2023-02-01T17:54:19;5.40;99.90
46508;DHT22;32223;53.654;10.014;2023-02-01T17:56:45;5.40;99.90
46508;DHT22;32223;53.654;10.014;2023-02-01T17:59:13;5.40;99.90
46508;DHT22;32223;53.654;10.014;2023-02-01T18:01:39;5.40;99.90
46508;DHT22;32223;53.654;10.014;2023-02-01T18:04:07;5.40;99.90
46508;DHT22;32223;53.654;10.014;2023-02-01T18:06:34;5.40;99.90
46508;DHT22;32223;53.654;10.014;2023-02-01T18:08:59;5.40;99.90
46508;DHT22;32223;53.654;10.014;2023-02-01T18:11:25;5.40;99.90
46508;DHT22;32223;53.654;10.014;2023-02-01T18:13:52;5.50;99.90
46508;DHT22;32223;53.654;10.014;2023-02-01T18:16:29;5.50;99.90
46508;DHT22;32223;53.654;10.014;2023-02-01T18:18:56;5.50;99.90
46508;DHT22;32223;53.654;10.014;2023-02-01T18:21:35;5.40;99.90
46508;DHT22;32223;53.654;10.014;2023-02-01T18:24:01;5.40;99.90